sensor_id;sensor_type;location;lat;lon;timestamp;P1;durP1;ratioP1;P2;durP2;ratioP2
22754;SDS011;11544;42.020;23.094;2023-02-28T00:01:25;4.95;;;2.05;;
22754;SDS011;11544;42.020;23.094;2023-02-28T00:03:53;8.55;;;2.60;;
22754;SDS011;11544;42.020;23.094;2023-02-28T00:06:20;7.18;;;2.50;;
22754;SDS011;11544;42.020;23.094;2023-02-28T00:08:47;6.10;;;3.20;;
22754;SDS011;11544;42.020;23.094;2023-02-28T00:11:14;7.72;;;2.63;;
22754;SDS011;11544;42.020;23.094;2023-02-28T00:13:43;5.63;;;2.72;;
22754;SDS011;11544;42.020;23.094;2023-02-28T00:16:16;9.43;;;3.75;;
22754;SDS011;11544;42.020;23.094;2023-02-28T00:18:45;7.30;;;2.88;;
22754;SDS011;11544;42.020;23.094;2023-02-28T00:21:14;5.57;;;3.22;;
22754;SDS011;11544;42.020;23.094;2023-02-28T00:23:41;11.95;;;4.03;;
22754;SDS011;11544;42.020;23.094;2023-02-28T00:26:08;8.55;;;3.05;;
22754;SDS011;11544;42.020;23.094;2023-02-28T00:28:36;6.40;;;3.05;;
22754;SDS011;11544;42.020;23.094;2023-02-28T00:31:03;7.97;;;3.85;;
22754;SDS011;11544;42.020;23.094;2023-02-28T00:33:30;7.65;;;3.80;;
22754;SDS011;11544;42.020;23.094;2023-02-28T00:36:01;5.25;;;3.58;;
22754;SDS011;11544;42.020;23.094;2023-02-28T00:38:32;7.43;;;3.42;;
22754;SDS011;11544;42.020;23.094;2023-02-28T00:41:00;6.10;;;3.70;;
22754;SDS011;11544;42.020;23.094;2023-02-28T00:43:35;9.02;;;3.83;;
22754;SDS011;11544;42.020;23.094;2023-02-28T00:46:04;11.45;;;3.90;;
22754;SDS011;11544;42.020;23.094;2023-02-28T00:48:31;8.23;;;3.85;;
22754;SDS011;11544;42.020;23.094;2023-02-28T00:50:59;9.07;;;3.60;;
22754;SDS011;11544;42.020;23.094;2023-02-28T00:53:50;9.55;;;4.47;;
22754;SDS011;11544;42.020;23.094;2023-02-28T00:56:17;10.63;;;4.13;;
22754;SDS011;11544;42.020;23.094;2023-02-28T00:58:44;7.10;;;3.67;;
22754;SDS011;11544;42.020;23.094;2023-02-28T01:01:11;7.68;;;3.90;;
22754;SDS011;11544;42.020;23.094;2023-02-28T01:03:38;6.25;;;3.03;;
22754;SDS011;11544;42.020;23.094;2023-02-28T01:06:06;7.80;;;3.47;;
22754;SDS011;11544;42.020;23.094;2023-02-28T01:08:33;6.60;;;3.15;;
22754;SDS011;11544;42.020;23.094;2023-02-28T01:11:10;7.05;;;3.53;;
22754;SDS011;11544;42.020;23.094;2023-02-28T01:13:39;10.15;;;3.38;;
22754;SDS011;11544;42.020;23.094;2023-02-28T01:16:06;5.05;;;3.03;;
22754;SDS011;11544;42.020;23.094;2023-02-28T01:18:33;5.68;;;2.85;;
22754;SDS011;11544;42.020;23.094;2023-02-28T01:21:08;3.45;;;2.53;;
22754;SDS011;11544;42.020;23.094;2023-02-28T01:23:37;6.53;;;2.72;;
22754;SDS011;11544;42.020;23.094;2023-02-28T01:26:09;6.07;;;2.72;;
22754;SDS011;11544;42.020;23.094;2023-02-28T01:28:38;7.85;;;2.83;;
22754;SDS011;11544;42.020;23.094;2023-02-28T01:31:06;6.82;;;2.97;;
22754;SDS011;11544;42.020;23.094;2023-02-28T01:33:34;7.57;;;2.58;;
22754;SDS011;11544;42.020;23.094;2023-02-28T01:36:03;7.30;;;2.78;;
22754;SDS011;11544;42.020;23.094;2023-02-28T01:38:32;4.32;;;2.92;;
22754;SDS011;11544;42.020;23.094;2023-02-28T01:41:00;5.25;;;2.33;;
22754;SDS011;11544;42.020;23.094;2023-02-28T01:43:27;5.18;;;2.42;;
22754;SDS011;11544;42.020;23.094;2023-02-28T01:46:54;6.72;;;2.55;;
22754;SDS011;11544;42.020;23.094;2023-02-28T01:49:14;11.80;;;2.92;;
22754;SDS011;11544;42.020;23.094;2023-02-28T01:58:29;4.65;;;2.65;;
22754;SDS011;11544;42.020;23.094;2023-02-28T02:01:39;5.32;;;2.35;;
22754;SDS011;11544;42.020;23.094;2023-02-28T02:04:39;3.30;;;1.92;;
22754;SDS011;11544;42.020;23.094;2023-02-28T02:07:26;7.47;;;3.13;;
22754;SDS011;11544;42.020;23.094;2023-02-28T02:10:20;3.92;;;2.10;;
22754;SDS011;11544;42.020;23.094;2023-02-28T02:13:25;6.70;;;2.83;;
22754;SDS011;11544;42.020;23.094;2023-02-28T02:16:30;5.57;;;2.35;;
22754;SDS011;11544;42.020;23.094;2023-02-28T02:36:00;5.25;;;2.38;;
22754;SDS011;11544;42.020;23.094;2023-02-28T02:39:10;3.75;;;2.05;;
22754;SDS011;11544;42.020;23.094;2023-02-28T02:42:00;4.05;;;2.17;;
22754;SDS011;11544;42.020;23.094;2023-02-28T02:44:42;7.35;;;2.90;;
22754;SDS011;11544;42.020;23.094;2023-02-28T02:47:15;2.70;;;1.20;;
22754;SDS011;11544;42.020;23.094;2023-02-28T02:49:52;3.20;;;1.48;;
22754;SDS011;11544;42.020;23.094;2023-02-28T02:52:29;3.58;;;1.52;;
22754;SDS011;11544;42.020;23.094;2023-02-28T02:55:02;7.80;;;2.15;;
22754;SDS011;11544;42.020;23.094;2023-02-28T03:00:53;5.60;;;1.60;;
22754;SDS011;11544;42.020;23.094;2023-02-28T03:03:23;5.95;;;2.00;;
22754;SDS011;11544;42.020;23.094;2023-02-28T03:05:58;5.10;;;1.42;;
22754;SDS011;11544;42.020;23.094;2023-02-28T03:08:27;3.83;;;1.48;;
22754;SDS011;11544;42.020;23.094;2023-02-28T03:11:00;3.95;;;1.60;;
22754;SDS011;11544;42.020;23.094;2023-02-28T03:21:27;4.68;;;1.90;;
22754;SDS011;11544;42.020;23.094;2023-02-28T03:24:07;4.47;;;1.55;;
22754;SDS011;11544;42.020;23.094;2023-02-28T03:26:39;2.97;;;2.00;;
22754;SDS011;11544;42.020;23.094;2023-02-28T03:29:25;3.70;;;1.52;;
22754;SDS011;11544;42.020;23.094;2023-02-28T03:32:17;4.97;;;2.10;;
22754;SDS011;11544;42.020;23.094;2023-02-28T03:34:54;6.60;;;1.98;;
22754;SDS011;11544;42.020;23.094;2023-02-28T03:37:27;6.00;;;1.70;;
22754;SDS011;11544;42.020;23.094;2023-02-28T03:39:59;6.10;;;2.13;;
22754;SDS011;11544;42.020;23.094;2023-02-28T03:42:31;4.15;;;1.48;;
22754;SDS011;11544;42.020;23.094;2023-02-28T03:45:00;4.53;;;1.60;;
22754;SDS011;11544;42.020;23.094;2023-02-28T03:47:38;4.72;;;1.70;;
22754;SDS011;11544;42.020;23.094;2023-02-28T03:50:24;9.98;;;5.15;;
22754;SDS011;11544;42.020;23.094;2023-02-28T03:53:10;8.63;;;4.53;;
22754;SDS011;11544;42.020;23.094;2023-02-28T03:55:45;6.22;;;2.80;;
22754;SDS011;11544;42.020;23.094;2023-02-28T03:58:20;5.68;;;1.83;;
22754;SDS011;11544;42.020;23.094;2023-02-28T04:00:56;6.10;;;2.00;;
22754;SDS011;11544;42.020;23.094;2023-02-28T04:03:37;5.30;;;1.90;;
22754;SDS011;11544;42.020;23.094;2023-02-28T04:06:07;4.03;;;1.90;;
22754;SDS011;11544;42.020;23.094;2023-02-28T04:08:39;5.03;;;1.88;;
22754;SDS011;11544;42.020;23.094;2023-02-28T04:11:06;5.10;;;1.98;;
22754;SDS011;11544;42.020;23.094;2023-02-28T04:13:44;6.35;;;1.75;;
22754;SDS011;11544;42.020;23.094;2023-02-28T04:16:12;6.15;;;2.17;;
22754;SDS011;11544;42.020;23.094;2023-02-28T04:18:57;6.25;;;2.45;;
22754;SDS011;11544;42.020;23.094;2023-02-28T04:21:29;7.55;;;2.25;;
22754;SDS011;11544;42.020;23.094;2023-02-28T04:23:57;3.63;;;1.63;;
22754;SDS011;11544;42.020;23.094;2023-02-28T04:26:31;9.43;;;1.90;;
22754;SDS011;11544;42.020;23.094;2023-02-28T04:28:59;5.40;;;1.70;;
22754;SDS011;11544;42.020;23.094;2023-02-28T04:31:26;6.07;;;1.73;;
22754;SDS011;11544;42.020;23.094;2023-02-28T04:33:54;5.50;;;1.30;;
22754;SDS011;11544;42.020;23.094;2023-02-28T04:36:22;7.53;;;2.10;;
22754;SDS011;11544;42.020;23.094;2023-02-28T04:38:49;6.10;;;1.90;;
22754;SDS011;11544;42.020;23.094;2023-02-28T04:41:17;9.13;;;1.50;;
22754;SDS011;11544;42.020;23.094;2023-02-28T04:43:44;6.43;;;1.40;;
22754;SDS011;11544;42.020;23.094;2023-02-28T04:46:11;9.77;;;1.85;;
22754;SDS011;11544;42.020;23.094;2023-02-28T04:48:38;4.78;;;1.98;;
22754;SDS011;11544;42.020;23.094;2023-02-28T04:51:10;7.78;;;1.88;;
22754;SDS011;11544;42.020;23.094;2023-02-28T04:53:39;8.38;;;2.22;;
22754;SDS011;11544;42.020;23.094;2023-02-28T04:56:07;9.25;;;2.50;;
22754;SDS011;11544;42.020;23.094;2023-02-28T04:58:36;8.75;;;3.97;;
22754;SDS011;11544;42.020;23.094;2023-02-28T05:01:04;8.63;;;4.10;;
22754;SDS011;11544;42.020;23.094;2023-02-28T05:03:43;11.88;;;4.32;;
22754;SDS011;11544;42.020;23.094;2023-02-28T05:06:10;14.48;;;5.72;;
22754;SDS011;11544;42.020;23.094;2023-02-28T05:08:38;16.38;;;7.30;;
22754;SDS011;11544;42.020;23.094;2023-02-28T05:11:06;15.75;;;7.57;;
22754;SDS011;11544;42.020;23.094;2023-02-28T05:13:42;16.85;;;7.78;;
22754;SDS011;11544;42.020;23.094;2023-02-28T05:16:10;13.98;;;5.93;;
22754;SDS011;11544;42.020;23.094;2023-02-28T05:18:37;14.90;;;7.10;;
22754;SDS011;11544;42.020;23.094;2023-02-28T05:21:04;12.55;;;6.85;;
22754;SDS011;11544;42.020;23.094;2023-02-28T05:23:32;20.25;;;8.18;;
22754;SDS011;11544;42.020;23.094;2023-02-28T05:25:59;16.63;;;7.15;;
22754;SDS011;11544;42.020;23.094;2023-02-28T05:28:25;18.63;;;7.15;;
22754;SDS011;11544;42.020;23.094;2023-02-28T05:30:53;16.80;;;8.05;;
22754;SDS011;11544;42.020;23.094;2023-02-28T05:33:19;13.32;;;5.63;;
22754;SDS011;11544;42.020;23.094;2023-02-28T05:35:46;11.57;;;4.88;;
22754;SDS011;11544;42.020;23.094;2023-02-28T05:38:13;16.17;;;4.85;;
22754;SDS011;11544;42.020;23.094;2023-02-28T05:40:40;14.40;;;5.82;;
22754;SDS011;11544;42.020;23.094;2023-02-28T05:43:08;12.20;;;4.85;;
22754;SDS011;11544;42.020;23.094;2023-02-28T05:45:37;11.35;;;5.22;;
22754;SDS011;11544;42.020;23.094;2023-02-28T05:48:04;10.10;;;4.93;;
22754;SDS011;11544;42.020;23.094;2023-02-28T05:50:31;11.80;;;5.93;;
22754;SDS011;11544;42.020;23.094;2023-02-28T05:52:58;15.45;;;5.40;;
22754;SDS011;11544;42.020;23.094;2023-02-28T05:55:25;12.70;;;5.75;;
22754;SDS011;11544;42.020;23.094;2023-02-28T05:57:54;13.32;;;5.28;;
22754;SDS011;11544;42.020;23.094;2023-02-28T06:00:22;8.02;;;3.83;;
22754;SDS011;11544;42.020;23.094;2023-02-28T06:02:49;10.75;;;4.68;;
22754;SDS011;11544;42.020;23.094;2023-02-28T06:05:16;16.95;;;5.03;;
22754;SDS011;11544;42.020;23.094;2023-02-28T06:07:44;13.00;;;4.72;;
22754;SDS011;11544;42.020;23.094;2023-02-28T06:10:11;11.43;;;4.50;;
22754;SDS011;11544;42.020;23.094;2023-02-28T06:12:39;10.82;;;4.47;;
22754;SDS011;11544;42.020;23.094;2023-02-28T06:15:16;8.57;;;4.63;;
22754;SDS011;11544;42.020;23.094;2023-02-28T06:17:43;19.35;;;6.57;;
22754;SDS011;11544;42.020;23.094;2023-02-28T06:20:11;13.50;;;5.00;;
22754;SDS011;11544;42.020;23.094;2023-02-28T06:22:44;18.40;;;5.45;;
22754;SDS011;11544;42.020;23.094;2023-02-28T06:25:11;12.95;;;5.63;;
22754;SDS011;11544;42.020;23.094;2023-02-28T06:27:38;13.50;;;5.30;;
22754;SDS011;11544;42.020;23.094;2023-02-28T06:30:06;9.48;;;3.78;;
22754;SDS011;11544;42.020;23.094;2023-02-28T06:32:34;8.52;;;4.00;;
22754;SDS011;11544;42.020;23.094;2023-02-28T06:35:02;6.38;;;3.50;;
22754;SDS011;11544;42.020;23.094;2023-02-28T06:37:30;7.80;;;3.90;;
22754;SDS011;11544;42.020;23.094;2023-02-28T06:39:57;6.57;;;3.50;;
22754;SDS011;11544;42.020;23.094;2023-02-28T06:42:30;9.55;;;3.97;;
22754;SDS011;11544;42.020;23.094;2023-02-28T06:44:58;7.28;;;3.55;;
22754;SDS011;11544;42.020;23.094;2023-02-28T06:47:25;8.88;;;4.78;;
22754;SDS011;11544;42.020;23.094;2023-02-28T06:49:55;9.95;;;3.92;;
22754;SDS011;11544;42.020;23.094;2023-02-28T06:52:25;12.50;;;4.97;;
22754;SDS011;11544;42.020;23.094;2023-02-28T06:54:51;10.75;;;5.28;;
22754;SDS011;11544;42.020;23.094;2023-02-28T06:57:29;8.35;;;4.03;;
22754;SDS011;11544;42.020;23.094;2023-02-28T06:59:58;14.18;;;5.20;;
22754;SDS011;11544;42.020;23.094;2023-02-28T07:02:26;7.75;;;4.28;;
22754;SDS011;11544;42.020;23.094;2023-02-28T07:04:53;5.97;;;3.25;;
22754;SDS011;11544;42.020;23.094;2023-02-28T16:04:27;21.23;;;8.80;;
22754;SDS011;11544;42.020;23.094;2023-02-28T16:07:02;25.33;;;10.27;;
22754;SDS011;11544;42.020;23.094;2023-02-28T16:09:35;20.45;;;9.18;;
22754;SDS011;11544;42.020;23.094;2023-02-28T16:12:04;20.55;;;9.25;;
22754;SDS011;11544;42.020;23.094;2023-02-28T16:14:32;16.60;;;9.43;;
22754;SDS011;11544;42.020;23.094;2023-02-28T16:17:05;24.08;;;9.63;;
22754;SDS011;11544;42.020;23.094;2023-02-28T16:19:40;24.27;;;10.20;;
22754;SDS011;11544;42.020;23.094;2023-02-28T16:22:07;21.17;;;9.73;;
22754;SDS011;11544;42.020;23.094;2023-02-28T16:24:39;20.63;;;9.68;;
22754;SDS011;11544;42.020;23.094;2023-02-28T16:27:16;26.40;;;14.52;;
22754;SDS011;11544;42.020;23.094;2023-02-28T16:29:53;32.15;;;16.88;;
22754;SDS011;11544;42.020;23.094;2023-02-28T16:32:22;32.38;;;16.15;;
22754;SDS011;11544;42.020;23.094;2023-02-28T16:34:54;35.42;;;18.80;;
